Time;durP1;ratioP1;P1;durP2;ratioP2;P2;SDS_P1;SDS_P2;PMS_P1;PMS_P2;Temp;Humidity;BMP_temperature;BMP_pressure;BME280_temperature;BME280_humidity;BME280_pressure;Samples;Min_cycle;Max_cycle;Signal;HPM_P1;HPM_P2
2023/05/11 00:00:29;;;;;;;20.38;12.85;;;;;;;;;;5043382;28;20229;-68
2023/05/11 00:02:54;;;;;;;20.13;12.38;;;;;;;;;;5044137;28;20661;-68
2023/05/11 00:05:20;;;;;;;20.92;13.25;;;;;;;;;;5030508;28;20273;-68
2023/05/11 00:07:45;;;;;;;19.90;13.20;;;;;;;;;;5039652;28;20675;-68
2023/05/11 00:10:10;;;;;;;22.67;13.30;;;;;;;;;;5035956;28;20270;-68
2023/05/11 00:12:36;;;;;;;19.55;12.85;;;;;;;;;;5038525;28;20466;-68
2023/05/11 00:15:02;;;;;;;21.25;13.73;;;;;;;;;;5042857;28;20196;-68
2023/05/11 00:17:27;;;;;;;23.27;13.82;;;;;;;;;;5040284;28;20521;-68
2023/05/11 00:19:52;;;;;;;20.90;13.40;;;;;;;;;;5028135;28;20689;-68
2023/05/11 00:22:18;;;;;;;22.50;14.13;;;;;;;;;;5037263;28;20281;-68
2023/05/11 00:24:43;;;;;;;23.20;14.90;;;;;;;;;;5029982;28;20193;-68
2023/05/11 00:27:09;;;;;;;21.00;14.35;;;;;;;;;;5038920;28;20193;-68
2023/05/11 00:29:34;;;;;;;25.13;15.50;;;;;;;;;;5030481;28;20293;-68
2023/05/11 00:32:00;;;;;;;23.67;14.68;;;;;;;;;;5039182;28;20251;-68
2023/05/11 00:34:25;;;;;;;26.88;14.73;;;;;;;;;;5032238;28;20182;-68
2023/05/11 00:36:51;;;;;;;24.17;16.02;;;;;;;;;;5041423;28;20315;-68
2023/05/11 00:39:17;;;;;;;25.92;16.38;;;;;;;;;;5035739;28;20185;-68
2023/05/11 00:41:42;;;;;;;24.88;16.13;;;;;;;;;;5033489;28;20313;-68
2023/05/11 00:44:08;;;;;;;22.85;15.30;;;;;;;;;;5039807;28;20631;-68
2023/05/11 00:46:33;;;;;;;25.42;16.17;;;;;;;;;;5037765;28;20229;-68
2023/05/11 00:48:59;;;;;;;26.67;16.58;;;;;;;;;;5031652;28;20563;-68
2023/05/11 00:51:25;;;;;;;24.88;14.73;;;;;;;;;;5045981;28;20641;-68
2023/05/11 00:53:50;;;;;;;24.30;15.20;;;;;;;;;;5040113;28;20189;-68
2023/05/11 00:56:16;;;;;;;26.33;15.13;;;;;;;;;;5034564;28;20627;-69
2023/05/11 00:58:41;;;;;;;25.70;15.95;;;;;;;;;;5032664;28;20201;-69
2023/05/11 01:01:06;;;;;;;25.15;15.48;;;;;;;;;;5035184;28;20356;-69
2023/05/11 01:03:34;;;;;;;26.25;16.35;;;;;;;;;;5045214;28;20185;-68
2023/05/11 01:06:14;;;;;;;28.10;15.80;;;;;;;;;;5041607;28;20185;-69
2023/05/11 01:08:46;;;;;;;23.92;16.40;;;;;;;;;;5047588;28;20201;-68
2023/05/11 01:11:24;;;;;;;23.33;16.52;;;;;;;;;;5047397;28;20188;-68
2023/05/11 01:13:55;;;;;;;24.92;16.42;;;;;;;;;;5047971;28;20758;-68
2023/05/11 01:16:25;;;;;;;26.55;16.58;;;;;;;;;;5037397;28;20227;-68
2023/05/11 01:19:00;;;;;;;25.98;17.02;;;;;;;;;;5032658;28;20369;-68
2023/05/11 01:21:30;;;;;;;26.35;17.13;;;;;;;;;;5040832;28;20691;-68
2023/05/11 01:24:33;;;;;;;26.38;16.85;;;;;;;;;;5044714;28;20809;-69
2023/05/11 01:27:24;;;;;;;26.02;17.25;;;;;;;;;;5044703;28;20284;-69
2023/05/11 01:30:08;;;;;;;25.40;15.88;;;;;;;;;;5032915;28;20544;-69
2023/05/11 01:32:35;;;;;;;26.90;17.38;;;;;;;;;;5036360;28;20199;-69
2023/05/11 01:35:09;;;;;;;30.83;18.25;;;;;;;;;;5032091;28;20244;-69
2023/05/11 01:37:36;;;;;;;22.88;16.08;;;;;;;;;;5043787;28;20216;-69
2023/05/11 01:40:09;;;;;;;28.27;17.08;;;;;;;;;;5032849;28;20638;-69
2023/05/11 01:42:40;;;;;;;23.92;16.10;;;;;;;;;;5038568;28;20324;-69
2023/05/11 01:45:07;;;;;;;27.33;17.25;;;;;;;;;;5050948;28;20645;-69
2023/05/11 01:47:34;;;;;;;27.00;16.88;;;;;;;;;;5045852;28;20572;-69
2023/05/11 01:50:01;;;;;;;28.25;17.60;;;;;;;;;;5034025;28;20190;-69
2023/05/11 01:52:29;;;;;;;25.50;15.75;;;;;;;;;;5042008;28;20514;-69
2023/05/11 01:54:56;;;;;;;26.33;16.33;;;;;;;;;;5033364;28;20665;-69
2023/05/11 01:57:23;;;;;;;30.38;17.35;;;;;;;;;;5039415;28;20197;-69
2023/05/11 01:59:50;;;;;;;27.17;17.08;;;;;;;;;;5050982;28;20177;-69
2023/05/11 02:02:17;;;;;;;27.80;17.35;;;;;;;;;;5033385;28;20537;-66
2023/05/11 02:04:44;;;;;;;28.35;17.95;;;;;;;;;;5037309;28;20238;-67
2023/05/11 02:07:11;;;;;;;31.35;17.42;;;;;;;;;;5046168;28;20185;-67
2023/05/11 02:09:39;;;;;;;27.88;16.90;;;;;;;;;;5039776;28;20202;-67
2023/05/11 02:12:06;;;;;;;28.10;16.42;;;;;;;;;;5038590;28;20193;-68
2023/05/11 02:14:33;;;;;;;26.80;17.00;;;;;;;;;;5054017;28;20188;-69
2023/05/11 02:17:00;;;;;;;28.10;17.17;;;;;;;;;;5048026;28;20193;-69
2023/05/11 02:19:29;;;;;;;30.05;16.92;;;;;;;;;;5043837;28;20190;-69
2023/05/11 02:21:55;;;;;;;27.30;17.35;;;;;;;;;;5043254;28;20226;-69
2023/05/11 02:24:23;;;;;;;33.20;18.40;;;;;;;;;;5035410;28;20248;-69
2023/05/11 02:26:49;;;;;;;30.58;18.15;;;;;;;;;;5036135;28;20264;-68
2023/05/11 02:29:14;;;;;;;31.88;17.98;;;;;;;;;;5048825;28;20680;-68
2023/05/11 02:31:44;;;;;;;28.75;17.80;;;;;;;;;;5045569;28;20205;-68
2023/05/11 02:34:19;;;;;;;29.73;17.42;;;;;;;;;;5030228;28;20516;-69
2023/05/11 02:36:48;;;;;;;33.00;17.40;;;;;;;;;;5043392;28;20197;-69
2023/05/11 02:39:20;;;;;;;29.60;17.70;;;;;;;;;;5048146;28;20267;-68
2023/05/11 02:41:47;;;;;;;35.55;18.77;;;;;;;;;;5042918;28;20206;-69
2023/05/11 02:44:14;;;;;;;35.03;18.80;;;;;;;;;;5053924;28;20186;-68
2023/05/11 02:46:41;;;;;;;33.17;18.25;;;;;;;;;;5041846;28;20258;-69
2023/05/11 02:49:09;;;;;;;31.67;17.20;;;;;;;;;;5048450;28;20217;-68
2023/05/11 02:51:41;;;;;;;33.75;18.85;;;;;;;;;;5040057;28;20288;-68
2023/05/11 02:54:09;;;;;;;32.08;19.05;;;;;;;;;;5039306;28;20190;-68
2023/05/11 02:56:35;;;;;;;28.40;17.58;;;;;;;;;;5042395;28;20544;-68
2023/05/11 02:59:01;;;;;;;29.83;17.20;;;;;;;;;;5037418;28;20181;-67
2023/05/11 03:01:27;;;;;;;32.92;18.52;;;;;;;;;;5048798;28;20233;-67
2023/05/11 03:03:53;;;;;;;32.25;17.02;;;;;;;;;;5034339;28;20267;-68
2023/05/11 03:06:18;;;;;;;29.75;17.77;;;;;;;;;;5049745;28;20201;-68
2023/05/11 03:08:44;;;;;;;29.92;17.73;;;;;;;;;;5038495;28;20221;-68
2023/05/11 03:11:11;;;;;;;28.75;17.38;;;;;;;;;;5034267;28;20197;-68
2023/05/11 03:13:37;;;;;;;34.90;18.17;;;;;;;;;;5050852;28;20258;-68
2023/05/11 03:16:04;;;;;;;34.40;18.63;;;;;;;;;;5047256;28;20189;-68
2023/05/11 03:18:31;;;;;;;34.72;18.75;;;;;;;;;;5033137;28;20289;-68
2023/05/11 03:20:59;;;;;;;32.70;18.60;;;;;;;;;;5037792;28;20209;-68
2023/05/11 03:23:25;;;;;;;32.92;18.52;;;;;;;;;;5036321;28;20716;-69
2023/05/11 03:25:51;;;;;;;27.90;16.80;;;;;;;;;;5036657;28;20546;-68
2023/05/11 03:28:18;;;;;;;32.72;19.25;;;;;;;;;;5044522;28;20185;-69
2023/05/11 03:30:45;;;;;;;32.90;18.17;;;;;;;;;;5030080;28;20290;-68
2023/05/11 03:33:10;;;;;;;31.55;17.10;;;;;;;;;;5037845;28;20247;-68
2023/05/11 03:35:37;;;;;;;28.13;18.10;;;;;;;;;;5041389;28;20704;-68
2023/05/11 03:38:04;;;;;;;33.10;19.10;;;;;;;;;;5040274;28;20197;-69
2023/05/11 03:40:33;;;;;;;33.00;18.02;;;;;;;;;;5029349;28;20206;-69
2023/05/11 03:43:01;;;;;;;30.60;18.23;;;;;;;;;;5039132;28;20190;-68
2023/05/11 03:45:27;;;;;;;33.42;18.58;;;;;;;;;;5042588;28;20761;-68
2023/05/11 03:47:55;;;;;;;30.45;18.58;;;;;;;;;;5048532;28;20233;-69
2023/05/11 03:50:21;;;;;;;31.45;18.20;;;;;;;;;;5033018;28;20202;-68
2023/05/11 03:52:48;;;;;;;28.60;17.58;;;;;;;;;;5044436;28;20211;-69
2023/05/11 03:55:13;;;;;;;31.67;18.13;;;;;;;;;;5034377;28;20532;-68
2023/05/11 03:57:38;;;;;;;33.20;18.95;;;;;;;;;;5040327;28;20190;-68
2023/05/11 04:00:05;;;;;;;35.15;18.60;;;;;;;;;;5029303;28;20544;-67
2023/05/11 04:02:33;;;;;;;35.90;20.42;;;;;;;;;;5042224;28;20648;-68
2023/05/11 04:04:58;;;;;;;35.92;20.02;;;;;;;;;;5028509;28;20682;-68
2023/05/11 04:07:24;;;;;;;33.70;19.15;;;;;;;;;;5040126;28;20201;-72
2023/05/11 04:09:49;;;;;;;29.25;18.48;;;;;;;;;;5044078;28;20627;-72
2023/05/11 04:12:15;;;;;;;31.38;19.10;;;;;;;;;;5045643;28;20225;-73
2023/05/11 04:14:40;;;;;;;39.10;21.73;;;;;;;;;;5032472;28;20270;-72
2023/05/11 04:17:05;;;;;;;44.25;23.98;;;;;;;;;;5047280;28;20764;-73
2023/05/11 04:19:31;;;;;;;43.35;23.67;;;;;;;;;;5043254;28;20201;-72
2023/05/11 04:21:56;;;;;;;39.92;22.67;;;;;;;;;;5041012;28;20206;-74
2023/05/11 04:24:21;;;;;;;42.45;23.55;;;;;;;;;;5026946;28;20681;-73
2023/05/11 04:26:47;;;;;;;43.08;23.05;;;;;;;;;;5047110;28;20278;-73
2023/05/11 04:29:12;;;;;;;47.10;24.17;;;;;;;;;;5046751;28;20201;-74
2023/05/11 04:31:38;;;;;;;44.50;24.83;;;;;;;;;;5047020;28;20192;-74
2023/05/11 04:34:06;;;;;;;43.50;22.85;;;;;;;;;;5021471;28;20197;-73
2023/05/11 04:36:31;;;;;;;41.70;24.33;;;;;;;;;;5042311;28;20247;-73
2023/05/11 04:38:57;;;;;;;41.13;23.15;;;;;;;;;;5032688;28;20694;-72
2023/05/11 04:41:22;;;;;;;36.53;21.55;;;;;;;;;;5028557;28;20259;-72
2023/05/11 04:43:48;;;;;;;37.97;22.00;;;;;;;;;;5047511;28;20242;-73
2023/05/11 04:46:14;;;;;;;37.17;20.75;;;;;;;;;;5033786;28;20304;-73
2023/05/11 04:48:39;;;;;;;28.05;16.25;;;;;;;;;;5047133;28;20216;-73
2023/05/11 04:51:06;;;;;;;24.23;14.75;;;;;;;;;;5043349;28;20663;-72
2023/05/11 04:53:32;;;;;;;23.15;13.77;;;;;;;;;;5032791;28;20268;-72
2023/05/11 04:55:57;;;;;;;17.95;10.48;;;;;;;;;;5048099;28;20272;-72
2023/05/11 04:58:22;;;;;;;18.20;10.45;;;;;;;;;;5047344;28;20665;-72
2023/05/11 05:00:48;;;;;;;14.80;9.40;;;;;;;;;;5044804;28;20316;-72
2023/05/11 05:03:13;;;;;;;18.35;9.25;;;;;;;;;;5038452;28;20210;-72
2023/05/11 05:05:39;;;;;;;15.00;9.40;;;;;;;;;;5042249;28;20380;-72
2023/05/11 05:08:06;;;;;;;15.88;9.57;;;;;;;;;;5040907;28;20669;-72
2023/05/11 05:10:31;;;;;;;12.20;7.50;;;;;;;;;;5047499;28;20288;-72
2023/05/11 05:12:57;;;;;;;11.68;6.38;;;;;;;;;;5042745;28;20296;-73
2023/05/11 05:15:22;;;;;;;11.10;6.18;;;;;;;;;;5052623;28;20185;-73
2023/05/11 05:17:47;;;;;;;8.27;5.32;;;;;;;;;;5043293;28;20187;-72
2023/05/11 05:20:13;;;;;;;8.77;5.68;;;;;;;;;;5048313;28;20216;-72
2023/05/11 05:22:38;;;;;;;8.80;5.68;;;;;;;;;;5046251;28;20189;-73
2023/05/11 05:25:04;;;;;;;9.88;5.68;;;;;;;;;;5040480;28;20189;-73
2023/05/11 05:27:30;;;;;;;10.60;6.40;;;;;;;;;;5051155;28;20598;-72
2023/05/11 05:29:55;;;;;;;9.13;5.13;;;;;;;;;;5050145;28;20241;-73
2023/05/11 05:32:20;;;;;;;8.27;5.30;;;;;;;;;;5037268;28;20243;-74
2023/05/11 05:34:46;;;;;;;9.05;5.10;;;;;;;;;;5026544;28;20268;-72
2023/05/11 05:37:12;;;;;;;11.40;6.32;;;;;;;;;;5046220;28;20266;-72
2023/05/11 05:39:37;;;;;;;8.35;5.00;;;;;;;;;;5045560;28;20197;-72
2023/05/11 05:42:02;;;;;;;9.82;5.35;;;;;;;;;;5036504;28;20221;-72
2023/05/11 05:44:28;;;;;;;9.65;5.70;;;;;;;;;;5031747;28;20720;-72
2023/05/11 05:46:53;;;;;;;10.40;5.82;;;;;;;;;;5050829;28;20679;-72
2023/05/11 05:49:19;;;;;;;10.77;5.60;;;;;;;;;;5049738;28;20204;-72
2023/05/11 05:51:44;;;;;;;9.80;5.72;;;;;;;;;;5048244;28;20200;-73
2023/05/11 05:54:12;;;;;;;9.18;5.60;;;;;;;;;;5048703;28;20185;-72
2023/05/11 05:56:37;;;;;;;9.85;5.78;;;;;;;;;;5051110;28;20197;-72
2023/05/11 05:59:03;;;;;;;9.35;5.35;;;;;;;;;;5050281;28;20482;-72
2023/05/11 06:01:28;;;;;;;8.95;5.28;;;;;;;;;;5050638;28;20283;-72
2023/05/11 06:03:55;;;;;;;8.05;5.00;;;;;;;;;;5049299;28;20201;-73
2023/05/11 06:06:20;;;;;;;7.60;4.88;;;;;;;;;;5044058;28;20200;-72
2023/05/11 06:08:45;;;;;;;10.00;5.28;;;;;;;;;;5041514;28;20276;-72
2023/05/11 06:11:11;;;;;;;8.25;4.75;;;;;;;;;;5037834;28;20181;-73
2023/05/11 06:13:36;;;;;;;5.97;3.78;;;;;;;;;;5041589;28;20186;-72
2023/05/11 06:16:02;;;;;;;8.50;4.43;;;;;;;;;;5038730;28;20252;-72
2023/05/11 06:18:27;;;;;;;8.10;4.55;;;;;;;;;;5038827;28;20632;-73
2023/05/11 06:20:52;;;;;;;6.68;4.30;;;;;;;;;;5047408;28;20237;-72
2023/05/11 06:23:18;;;;;;;8.18;4.68;;;;;;;;;;5048962;28;20194;-72
2023/05/11 06:25:43;;;;;;;10.23;4.78;;;;;;;;;;5033027;28;20193;-72
2023/05/11 06:28:09;;;;;;;7.85;4.88;;;;;;;;;;5045101;28;20320;-71
2023/05/11 06:30:34;;;;;;;8.27;4.47;;;;;;;;;;5046295;28;20238;-71
2023/05/11 06:33:00;;;;;;;7.90;4.55;;;;;;;;;;5042822;28;20532;-72
2023/05/11 06:35:25;;;;;;;6.90;4.57;;;;;;;;;;5041966;28;20256;-71
2023/05/11 06:37:51;;;;;;;9.18;5.30;;;;;;;;;;5034987;28;20197;-71
2023/05/11 06:40:16;;;;;;;9.80;5.60;;;;;;;;;;5048638;28;20589;-71
2023/05/11 06:42:42;;;;;;;6.88;5.00;;;;;;;;;;5048096;28;20197;-71
2023/05/11 06:45:08;;;;;;;6.35;4.70;;;;;;;;;;5036036;28;20246;-71
2023/05/11 06:47:33;;;;;;;7.22;4.60;;;;;;;;;;5034548;28;20350;-71
2023/05/11 06:49:59;;;;;;;5.55;4.07;;;;;;;;;;5035177;28;20637;-71
2023/05/11 06:52:24;;;;;;;8.40;4.00;;;;;;;;;;5033272;28;20251;-71
2023/05/11 06:54:50;;;;;;;4.07;3.30;;;;;;;;;;5030529;28;20202;-71
2023/05/11 06:57:15;;;;;;;4.82;2.45;;;;;;;;;;5044680;28;20227;-71
2023/05/11 06:59:41;;;;;;;2.65;2.30;;;;;;;;;;5029501;28;20200;-71
2023/05/11 07:02:06;;;;;;;3.47;3.03;;;;;;;;;;5033738;28;20226;-71
2023/05/11 07:04:32;;;;;;;3.78;2.90;;;;;;;;;;5038230;28;20226;-71
2023/05/11 07:06:57;;;;;;;3.47;3.15;;;;;;;;;;5033511;28;20236;-71
2023/05/11 07:09:22;;;;;;;5.03;3.20;;;;;;;;;;5040604;28;20189;-71
2023/05/11 07:11:48;;;;;;;3.80;2.70;;;;;;;;;;5037915;28;20190;-70
2023/05/11 07:14:14;;;;;;;2.90;2.40;;;;;;;;;;5043120;28;20189;-71
2023/05/11 07:16:39;;;;;;;3.78;2.25;;;;;;;;;;5031958;28;20544;-71
2023/05/11 07:19:07;;;;;;;3.03;2.17;;;;;;;;;;5038190;28;20823;-71
2023/05/11 07:21:33;;;;;;;2.17;1.80;;;;;;;;;;5030675;28;20461;-70
2023/05/11 07:23:59;;;;;;;3.33;2.10;;;;;;;;;;5036381;28;20220;-71
2023/05/11 07:26:24;;;;;;;2.70;1.52;;;;;;;;;;5041771;28;20229;-70
2023/05/11 07:28:49;;;;;;;1.63;1.40;;;;;;;;;;5047161;28;20185;-70
2023/05/11 07:31:15;;;;;;;2.53;1.63;;;;;;;;;;5044206;28;20188;-71
2023/05/11 07:33:40;;;;;;;3.55;1.58;;;;;;;;;;5036378;28;20191;-70
2023/05/11 07:36:06;;;;;;;2.22;1.48;;;;;;;;;;5040719;28;20637;-70
2023/05/11 07:38:32;;;;;;;3.80;1.40;;;;;;;;;;5038154;28;20230;-71
2023/05/11 07:40:57;;;;;;;2.55;1.50;;;;;;;;;;5030902;28;20688;-70
2023/05/11 07:43:22;;;;;;;2.00;1.35;;;;;;;;;;5042865;28;20300;-70
2023/05/11 07:45:48;;;;;;;1.60;1.40;;;;;;;;;;5047387;28;20182;-70
2023/05/11 07:48:13;;;;;;;2.55;1.17;;;;;;;;;;5039162;28;20878;-70
2023/05/11 07:50:40;;;;;;;2.80;1.10;;;;;;;;;;5034126;28;20186;-70
2023/05/11 07:53:05;;;;;;;1.58;1.00;;;;;;;;;;5038256;28;20575;-70
2023/05/11 07:55:30;;;;;;;2.78;1.08;;;;;;;;;;5043577;28;20213;-70
2023/05/11 07:57:56;;;;;;;3.35;1.27;;;;;;;;;;5043800;28;20386;-70
2023/05/11 08:00:21;;;;;;;1.95;1.23;;;;;;;;;;5033848;28;20228;-70
2023/05/11 08:02:47;;;;;;;1.20;1.00;;;;;;;;;;5044620;28;20221;-70
2023/05/11 08:05:12;;;;;;;1.27;1.17;;;;;;;;;;5039942;28;20208;-70
2023/05/11 08:07:38;;;;;;;2.15;1.33;;;;;;;;;;5032292;28;20189;-69
2023/05/11 08:10:04;;;;;;;1.83;1.20;;;;;;;;;;5037920;28;20220;-70
2023/05/11 08:12:29;;;;;;;1.30;1.20;;;;;;;;;;5040520;28;20189;-70
2023/05/11 08:14:55;;;;;;;1.50;1.40;;;;;;;;;;5047555;28;20223;-70
2023/05/11 08:17:20;;;;;;;1.55;1.30;;;;;;;;;;5040082;28;20523;-75
2023/05/11 08:19:45;;;;;;;1.65;1.55;;;;;;;;;;5037273;28;20730;-70
2023/05/11 08:22:11;;;;;;;2.83;1.60;;;;;;;;;;5037989;28;20225;-70
2023/05/11 08:24:37;;;;;;;1.83;1.48;;;;;;;;;;5043416;28;20197;-70
2023/05/11 08:27:02;;;;;;;1.42;1.13;;;;;;;;;;5046949;28;20177;-70
2023/05/11 08:29:27;;;;;;;2.85;1.45;;;;;;;;;;5044903;28;20194;-70
2023/05/11 08:31:53;;;;;;;2.08;1.45;;;;;;;;;;5034126;28;20599;-69
2023/05/11 08:34:18;;;;;;;3.28;1.80;;;;;;;;;;5032621;28;20202;-69
2023/05/11 08:36:44;;;;;;;1.92;1.13;;;;;;;;;;5047834;28;20644;-69
2023/05/11 08:39:09;;;;;;;2.60;1.17;;;;;;;;;;5046876;28;20201;-70
2023/05/11 08:41:34;;;;;;;1.30;1.20;;;;;;;;;;5041041;28;20518;-70
2023/05/11 08:44:00;;;;;;;2.55;1.85;;;;;;;;;;5043801;28;20193;-70
2023/05/11 08:46:29;;;;;;;4.07;2.55;;;;;;;;;;5038065;28;20232;-70
2023/05/11 08:48:56;;;;;;;3.40;2.20;;;;;;;;;;5037005;28;20206;-70
2023/05/11 08:51:22;;;;;;;3.88;3.15;;;;;;;;;;5033893;28;20194;-69
2023/05/11 08:53:47;;;;;;;4.45;3.40;;;;;;;;;;5045247;28;20655;-70
2023/05/11 08:56:15;;;;;;;4.18;3.78;;;;;;;;;;5039705;28;20189;-69
2023/05/11 08:58:41;;;;;;;5.38;4.35;;;;;;;;;;5031550;28;20184;-70
2023/05/11 09:01:09;;;;;;;5.72;4.88;;;;;;;;;;5035485;28;20205;-71
2023/05/11 09:03:35;;;;;;;6.82;4.60;;;;;;;;;;5040424;28;20276;-71
2023/05/11 09:06:04;;;;;;;7.40;5.18;;;;;;;;;;5027954;28;20201;-70
2023/05/11 09:08:30;;;;;;;5.88;5.07;;;;;;;;;;5034993;28;20190;-70
2023/05/11 09:10:57;;;;;;;7.25;6.10;;;;;;;;;;5038794;28;20185;-71
2023/05/11 09:13:24;;;;;;;6.50;5.80;;;;;;;;;;5032358;28;20280;-70
2023/05/11 09:15:50;;;;;;;9.85;7.00;;;;;;;;;;5047318;28;20216;-70
2023/05/11 09:18:16;;;;;;;9.52;7.22;;;;;;;;;;5032635;28;20192;-70
2023/05/11 09:20:43;;;;;;;9.20;7.47;;;;;;;;;;5032564;28;20289;-71
2023/05/11 09:23:08;;;;;;;8.80;7.28;;;;;;;;;;5039856;28;20182;-70
2023/05/11 09:25:37;;;;;;;9.60;7.53;;;;;;;;;;5040633;28;20236;-70
2023/05/11 09:28:03;;;;;;;9.95;7.70;;;;;;;;;;5034965;28;20645;-70
2023/05/11 09:30:28;;;;;;;8.90;8.00;;;;;;;;;;5040798;28;20177;-71
2023/05/11 09:32:58;;;;;;;8.68;7.45;;;;;;;;;;5031464;28;20198;-70
2023/05/11 09:35:28;;;;;;;9.25;7.47;;;;;;;;;;5036878;28;20317;-70
2023/05/11 09:37:59;;;;;;;10.00;7.72;;;;;;;;;;5042062;28;20225;-71
2023/05/11 09:40:28;;;;;;;10.52;7.55;;;;;;;;;;5044458;28;20673;-71
2023/05/11 09:42:54;;;;;;;10.85;8.73;;;;;;;;;;5038685;28;20190;-70
2023/05/11 09:45:40;;;;;;;9.90;7.95;;;;;;;;;;5035899;28;20247;-70
2023/05/11 09:48:12;;;;;;;11.07;8.02;;;;;;;;;;5039288;28;20210;-70
2023/05/11 09:50:37;;;;;;;10.63;7.68;;;;;;;;;;5049594;28;20656;-70
2023/05/11 09:53:03;;;;;;;10.75;7.90;;;;;;;;;;5040622;28;20293;-71
2023/05/11 09:55:28;;;;;;;8.93;7.57;;;;;;;;;;5040436;28;20617;-71
2023/05/11 09:57:57;;;;;;;9.15;7.30;;;;;;;;;;5029522;28;20697;-70
2023/05/11 10:00:24;;;;;;;10.15;8.45;;;;;;;;;;5033579;28;20560;-70
2023/05/11 10:03:19;;;;;;;8.70;7.15;;;;;;;;;;5034722;28;20743;-70
2023/05/11 10:05:58;;;;;;;9.95;8.45;;;;;;;;;;5036316;28;20690;-70
2023/05/11 10:08:29;;;;;;;11.80;8.63;;;;;;;;;;5035234;28;20284;-71
2023/05/11 10:10:55;;;;;;;9.52;7.95;;;;;;;;;;5049310;28;20189;-70
2023/05/11 10:13:21;;;;;;;10.45;8.20;;;;;;;;;;5054362;28;20197;-70
2023/05/11 10:15:51;;;;;;;8.90;7.63;;;;;;;;;;5032038;28;20418;-70
2023/05/11 10:18:16;;;;;;;9.80;8.05;;;;;;;;;;5034657;28;20199;-71
2023/05/11 10:20:43;;;;;;;13.13;8.68;;;;;;;;;;5038233;28;20712;-70
2023/05/11 10:23:09;;;;;;;10.00;8.45;;;;;;;;;;5042499;28;20200;-70
2023/05/11 10:25:35;;;;;;;11.23;8.52;;;;;;;;;;5039046;28;20209;-70
2023/05/11 10:28:01;;;;;;;10.27;8.60;;;;;;;;;;5040729;28;20187;-70
2023/05/11 10:30:26;;;;;;;11.60;8.70;;;;;;;;;;5044260;28;20251;-70
2023/05/11 10:32:54;;;;;;;8.45;7.43;;;;;;;;;;5048352;28;20263;-70
2023/05/11 10:35:20;;;;;;;10.18;8.90;;;;;;;;;;5041806;28;20190;-70
2023/05/11 10:37:46;;;;;;;12.45;8.88;;;;;;;;;;5039934;28;20281;-70
2023/05/11 10:40:12;;;;;;;10.80;8.52;;;;;;;;;;5042617;28;20655;-70
2023/05/11 10:43:17;;;;;;;10.13;8.20;;;;;;;;;;5040256;28;20198;-71
2023/05/11 10:46:23;;;;;;;10.23;7.65;;;;;;;;;;5036991;28;20193;-69
2023/05/11 10:49:26;;;;;;;12.63;8.85;;;;;;;;;;5007965;28;20189;-70
2023/05/11 10:52:08;;;;;;;9.40;8.18;;;;;;;;;;5046316;28;20189;-69
2023/05/11 10:54:59;;;;;;;9.73;8.43;;;;;;;;;;5045718;28;20316;-70
2023/05/11 10:57:56;;;;;;;10.65;8.70;;;;;;;;;;5029178;28;20204;-69
2023/05/11 11:00:49;;;;;;;10.15;8.60;;;;;;;;;;5039135;28;20225;-69
2023/05/11 11:03:15;;;;;;;10.13;8.77;;;;;;;;;;5047301;28;20220;-70
2023/05/11 11:05:42;;;;;;;10.50;9.13;;;;;;;;;;5032042;28;20619;-68
2023/05/11 11:08:08;;;;;;;9.38;7.82;;;;;;;;;;5037047;28;20661;-69
2023/05/11 11:10:36;;;;;;;11.35;10.15;;;;;;;;;;5047547;28;20185;-69
2023/05/11 11:13:07;;;;;;;11.55;10.32;;;;;;;;;;5043116;28;20178;-69
2023/05/11 11:15:54;;;;;;;14.98;10.45;;;;;;;;;;5030100;28;20265;-69
2023/05/11 11:18:21;;;;;;;11.57;10.25;;;;;;;;;;5040318;28;20185;-69
2023/05/11 11:20:49;;;;;;;13.32;10.60;;;;;;;;;;5032786;28;20578;-69
2023/05/11 11:23:42;;;;;;;11.80;10.25;;;;;;;;;;5048214;28;20220;-70
2023/05/11 11:26:10;;;;;;;11.38;10.15;;;;;;;;;;5048097;28;20225;-70
2023/05/11 11:28:55;;;;;;;11.95;9.80;;;;;;;;;;5039374;28;20197;-70
2023/05/11 11:31:31;;;;;;;10.68;7.80;;;;;;;;;;5046225;28;20189;-69
2023/05/11 11:34:17;;;;;;;10.18;9.07;;;;;;;;;;5033830;28;20185;-70
2023/05/11 11:36:59;;;;;;;10.07;9.00;;;;;;;;;;5042960;28;20289;-70
2023/05/11 11:39:26;;;;;;;11.38;9.15;;;;;;;;;;5038325;28;20189;-70
2023/05/11 11:42:01;;;;;;;11.77;9.73;;;;;;;;;;5041435;28;20533;-70
2023/05/11 11:44:27;;;;;;;10.20;9.10;;;;;;;;;;5041220;28;20192;-70
2023/05/11 11:47:14;;;;;;;10.18;8.07;;;;;;;;;;5037009;28;20279;-70
2023/05/11 11:49:41;;;;;;;11.38;8.70;;;;;;;;;;5034507;28;20239;-69
2023/05/11 11:52:11;;;;;;;9.23;8.23;;;;;;;;;;5046696;28;20203;-70
2023/05/11 11:54:43;;;;;;;10.20;8.70;;;;;;;;;;5045933;28;20763;-70
2023/05/11 11:57:33;;;;;;;9.15;8.18;;;;;;;;;;5035277;28;20933;-70
2023/05/11 11:59:59;;;;;;;8.98;7.65;;;;;;;;;;5041367;28;20276;-69
2023/05/11 12:02:26;;;;;;;7.75;7.00;;;;;;;;;;5028651;28;20220;-69
2023/05/11 12:05:11;;;;;;;8.55;7.07;;;;;;;;;;5036635;28;20197;-70
2023/05/11 12:07:41;;;;;;;8.38;6.72;;;;;;;;;;5039052;28;20178;-70
2023/05/11 12:10:07;;;;;;;8.88;6.00;;;;;;;;;;5047024;28;20563;-71
2023/05/11 12:12:34;;;;;;;6.03;5.30;;;;;;;;;;5044041;28;20237;-70
2023/05/11 12:15:01;;;;;;;6.18;5.57;;;;;;;;;;5048790;28;20194;-70
2023/05/11 12:17:28;;;;;;;6.57;5.00;;;;;;;;;;5031651;28;20190;-70
2023/05/11 12:20:09;;;;;;;5.60;3.95;;;;;;;;;;5047480;28;20547;-70
2023/05/11 12:22:35;;;;;;;4.90;4.40;;;;;;;;;;5048006;28;20548;-70
2023/05/11 12:25:04;;;;;;;6.47;4.95;;;;;;;;;;5042692;28;20583;-71
2023/05/11 12:27:29;;;;;;;6.30;5.70;;;;;;;;;;5037297;28;20617;-71
2023/05/11 12:29:56;;;;;;;7.18;5.32;;;;;;;;;;5047876;28;20185;-71
2023/05/11 12:32:26;;;;;;;7.40;5.15;;;;;;;;;;5028732;28;20182;-71
2023/05/11 12:35:00;;;;;;;5.75;5.15;;;;;;;;;;5042654;28;20717;-70
2023/05/11 12:37:25;;;;;;;5.13;4.43;;;;;;;;;;5048109;28;20225;-70
2023/05/11 12:39:55;;;;;;;5.72;4.50;;;;;;;;;;5047455;28;20217;-70
2023/05/11 12:42:20;;;;;;;5.03;4.43;;;;;;;;;;5030755;28;20202;-70
2023/05/11 12:44:46;;;;;;;6.53;4.35;;;;;;;;;;5030269;28;20213;-70
2023/05/11 12:47:12;;;;;;;5.90;5.30;;;;;;;;;;5037518;28;20229;-70
2023/05/11 12:49:40;;;;;;;6.40;5.22;;;;;;;;;;5044013;28;20702;-70
2023/05/11 12:52:07;;;;;;;5.65;4.38;;;;;;;;;;5048108;28;20914;-71
2023/05/11 12:54:37;;;;;;;5.22;4.05;;;;;;;;;;5043291;28;20356;-72
2023/05/11 12:57:03;;;;;;;4.00;3.60;;;;;;;;;;5033019;28;20213;-70
2023/05/11 12:59:33;;;;;;;3.60;3.25;;;;;;;;;;5047141;28;20516;-70
2023/05/11 13:02:08;;;;;;;4.55;2.78;;;;;;;;;;5037538;28;20213;-71
2023/05/11 13:04:35;;;;;;;3.75;3.15;;;;;;;;;;5044609;28;20889;-70
2023/05/11 13:07:00;;;;;;;3.33;2.67;;;;;;;;;;5036982;28;20189;-70
2023/05/11 13:09:26;;;;;;;3.30;2.80;;;;;;;;;;5035502;28;20200;-70
2023/05/11 13:12:15;;;;;;;3.17;2.50;;;;;;;;;;5042402;28;20184;-70
2023/05/11 13:14:41;;;;;;;2.58;2.38;;;;;;;;;;5029394;28;20193;-70
2023/05/11 13:17:07;;;;;;;2.30;2.10;;;;;;;;;;5029952;28;20201;-70
2023/05/11 13:19:33;;;;;;;2.17;1.88;;;;;;;;;;5046503;28;20607;-70
2023/05/11 13:21:59;;;;;;;2.67;1.70;;;;;;;;;;5043128;28;20221;-70
2023/05/11 13:24:25;;;;;;;2.17;1.80;;;;;;;;;;5035868;28;20190;-70
2023/05/11 13:26:52;;;;;;;1.75;1.23;;;;;;;;;;5033666;28;20303;-70
2023/05/11 13:29:18;;;;;;;1.00;0.93;;;;;;;;;;5036784;28;20665;-70
2023/05/11 13:31:44;;;;;;;0.90;0.90;;;;;;;;;;5033323;28;20187;-68
2023/05/11 13:34:09;;;;;;;2.38;1.38;;;;;;;;;;5040227;28;20264;-68
2023/05/11 13:36:34;;;;;;;1.15;1.00;;;;;;;;;;5040586;28;20277;-68
2023/05/11 13:39:00;;;;;;;2.30;1.40;;;;;;;;;;5040281;28;20617;-70
2023/05/11 13:41:25;;;;;;;2.72;1.25;;;;;;;;;;5038456;28;20231;-70
2023/05/11 13:43:51;;;;;;;1.58;1.48;;;;;;;;;;5034741;28;20604;-69
2023/05/11 13:46:17;;;;;;;3.78;1.33;;;;;;;;;;5044399;28;20562;-71
2023/05/11 13:48:42;;;;;;;1.77;1.63;;;;;;;;;;5033280;28;20178;-69
2023/05/11 13:51:07;;;;;;;4.60;2.33;;;;;;;;;;5045106;28;20264;-70
2023/05/11 13:53:33;;;;;;;3.15;2.65;;;;;;;;;;5044374;28;20190;-70
2023/05/11 13:56:00;;;;;;;3.88;3.45;;;;;;;;;;5037597;28;20244;-70
2023/05/11 13:58:25;;;;;;;8.73;5.38;;;;;;;;;;5050726;28;20228;-70
2023/05/11 14:00:51;;;;;;;7.60;5.95;;;;;;;;;;5041430;28;20198;-69
2023/05/11 14:03:16;;;;;;;10.18;6.72;;;;;;;;;;5042258;28;20197;-70
2023/05/11 14:05:42;;;;;;;10.57;7.65;;;;;;;;;;5043407;28;20185;-69
2023/05/11 14:08:07;;;;;;;11.07;8.27;;;;;;;;;;5040925;28;20192;-71
2023/05/11 14:10:32;;;;;;;9.88;8.15;;;;;;;;;;5048444;28;20186;-70
2023/05/11 14:12:58;;;;;;;13.10;8.50;;;;;;;;;;5040780;28;20645;-69
2023/05/11 14:15:23;;;;;;;12.45;8.60;;;;;;;;;;5041506;28;20272;-70
2023/05/11 14:17:48;;;;;;;10.95;8.50;;;;;;;;;;5036470;28;20256;-70
2023/05/11 14:20:15;;;;;;;12.80;9.23;;;;;;;;;;5050941;28;20196;-69
2023/05/11 14:22:40;;;;;;;11.20;9.15;;;;;;;;;;5050262;28;20189;-69
2023/05/11 14:25:06;;;;;;;12.90;9.80;;;;;;;;;;5033287;28;20193;-69
2023/05/11 14:27:31;;;;;;;15.52;10.40;;;;;;;;;;5038949;28;20653;-69
2023/05/11 14:29:57;;;;;;;13.60;9.85;;;;;;;;;;5030774;28;20492;-69
2023/05/11 14:32:22;;;;;;;11.30;9.00;;;;;;;;;;5037497;28;20240;-69
2023/05/11 14:34:47;;;;;;;14.30;9.50;;;;;;;;;;5033913;28;20225;-70